Terminal Aerodrome Forecast
Issued by NWS

Home | Current Version | Previous Version | Text Only | Print | Product List | Glossary On
Versions: 1 2 3 4 5 6 7 8 9 10 11 12 13 14 15
236
FTUS43 KMQT 242320
TAFIWD
TAF
KIWD 242320Z 2500/2524 29007KT P6SM VCSH OVC035
     FM250200 27004KT P6SM OVC035
     FM250400 26004KT P6SM OVC030
     FM250800 29004KT P6SM OVC015
     FM251100 28004KT P6SM OVC008
     FM251400 30006KT P6SM VCSH OVC008
     FM251500 32006KT P6SM -SHRA OVC010=

USA.gov is the U.S. government's official web portal to all federal, state and local government web resources and services.